Flight Track Log - Related Links

Times and Time Zones

All times are in EDT time to prevent confusion due to time zone crossing. See the SWA127 flight status page for this flight to view local times or setup timezone preferences in your user account.

Time Position Orientation Groundspeed Altitude Reporting Facility
EDT Latitude Longitude Course Direction KTS MPH feet Rate Location/Type
Sun 11:35:59 AM 29.6497 -95.2850 245° Southwest 138 159 600  Level Houston Center
Sun 11:37:00 AM 29.6292 -95.3356 245° Southwest 224 258 2,900 2,053 Climbing Houston Center
Sun 11:37:15 AM 29.6264 -95.3397 233° Southwest 200 230 3,200 2,727 Climbing Houston Center
Sun 11:38:17 AM 29.5869 -95.3892 227° Southwest 208 239 6,400 3,435 Climbing Houston Center
Sun 11:39:19 AM 29.5047 -95.4333 205° Southwest 289 333 10,300 3,677 Climbing Houston Center
Sun 11:40:21 AM 29.4150 -95.4503 189° South 328 377 14,000 3,242 Climbing Houston Center
Sun 11:41:23 AM 29.3222 -95.4794 195° South 351 404 17,000 2,806 Climbing Houston Center
Sun 11:42:25 AM 29.2378 -95.5422 213° Southwest 362 417 19,800 2,710 Climbing Houston Center
Sun 11:43:27 AM 29.1519 -95.6053 213° Southwest 367 422 22,600 2,661 Climbing Houston Center
Sun 11:44:29 AM 29.0436 -95.6831 212° Southwest 383 441 25,300 2,129 Climbing Houston Center
Sun 11:45:31 AM 28.9475 -95.7517 212° Southwest 403 464 27,000 1,839 Climbing Houston Center
Sun 11:46:33 AM 28.8500 -95.8225 212° Southwest 413 475 29,100 1,742 Climbing Houston Center
Sun 11:47:35 AM 28.7506 -95.8950 213° Southwest 422 486 30,600 1,597 Climbing Houston Center
Sun 11:48:37 AM 28.6503 -95.9661 212° Southwest 432 497 32,400 1,984 Climbing Houston Center
Sun 11:49:39 AM 28.5503 -96.0383 212° Southwest 426 490 34,700 1,742 Climbing Houston Center
Sun 11:50:41 AM 28.4342 -96.1206 212° Southwest 412 474 36,000 629 Climbing Houston Center
Sun 11:51:43 AM 28.3400 -96.1903 213° Southwest 405 466 36,000  Level Houston Center
Sun 11:52:45 AM 28.2453 -96.2603 213° Southwest 405 466 36,000  Level Houston Center
Sun 11:53:47 AM 28.1489 -96.3300 213° Southwest 408 470 36,000  Level Houston Center
Sun 11:54:49 AM 28.0542 -96.4000 213° Southwest 406 467 36,000  Level Houston Center
Sun 11:55:51 AM 27.9572 -96.4706 213° Southwest 411 473 36,000  Level Houston Center
Sun 11:56:53 AM 27.8425 -96.5558 213° Southwest 411 473 36,000  Level Houston Center
Sun 11:57:55 AM 27.7450 -96.6267 213° Southwest 415 478 36,000  Level Houston Center
Sun 11:58:57 AM 27.6481 -96.6969 213° Southwest 414 476 36,000 -871 Level Houston Center
Sun 11:59:59 AM 27.5511 -96.7669 213° Southwest 413 475 34,200 -2,758 Descending Houston Center
Sun 12:01:01 PM 27.4408 -96.8464 213° Southwest 413 475 30,300 -3,264 Descending Houston Center
Sun 12:02:04 PM 27.3425 -96.9172 213° Southwest 416 479 27,400 -2,640 Descending Houston Center
Sun 12:03:06 PM 27.2483 -96.9842 212° Southwest 407 468 24,800 -2,516 Descending Houston Center
Sun 12:04:08 PM 27.1581 -97.0497 213° Southwest 394 453 22,200 -2,468 Descending Houston Center
Sun 12:05:10 PM 27.0703 -97.1128 213° Southwest 381 438 19,700 -2,371 Descending Houston Center
Sun 12:06:12 PM 26.9853 -97.1739 213° Southwest 369 425 17,300 -2,613 Descending Houston Center
Sun 12:07:14 PM 26.8867 -97.2442 212° Southwest 356 410 14,300 -2,613 Descending Houston Center
Sun 12:08:16 PM 26.8036 -97.3028 212° Southwest 337 388 11,900 -1,924 Descending Houston Center
Sun 12:09:25 PM 26.7150 -97.3672 213° Southwest 323 372 10,100 -1,662 Descending Houston Center
Sun 12:10:26 PM 26.6467 -97.4164 213° Southwest 287 330 8,300 -1,641 Descending Houston Center
Sun 12:11:22 PM 26.5850 -97.4589 212° Southwest 289 333 6,900 -1,678 Descending Houston Center
Sun 12:12:24 PM 26.5144 -97.5100 213° Southwest 282 325 5,000 -1,680 Descending Houston Center
Sun 12:13:27 PM 26.4489 -97.5553 212° Southwest 279 321 3,400 -1,392 Descending Houston Center
Sun 12:14:29 PM 26.3808 -97.6019 212° Southwest 269 310 2,100 -774 Descending Houston Center
Sun 12:15:31 PM 26.3258 -97.6336 207° Southwest 225 259 1,800 -581 Descending Houston Center
Sun 12:16:33 PM 26.2836 -97.6539 203° Southwest 160 184 900 -774 Descending Houston Center
Sun 12:17:35 PM 26.2456 -97.6597 188° South 141 162 200 -677 Descending Houston Center
Sun 12:19:00 PM 26.2271 -97.6551 214° Southwest  Level Estimated

Login

Don't have an account? Register now (free) for customized features, flight alerts, and more!